Green River, UT (84515)

2:52 PM MST on February 27, 2015 (GMT -0700)
Castle Valley | Change Station
CLOSE
Current Station
Personal Weather Station
Location: Castle Valley, UT
Elevation: 4833 ft
Nearby Weather Stations

Elev 4833 ft 38.63 °N, 109.39 °W | Updated 14 minutes ago

Mostly Cloudy
Mostly Cloudy
46.6 °F
Feels Like 47 °F
N
2.7
Wind Variable Wind from WNW

Today
High -- | Low -- °F
--% Chance of Precip.
Yesterday
High -- | Low -- °F
Precip. -- in
6:52 AM 6:07 PM
Waxing Gibbous, 72% visible
Pressure 29.74 in
Visibility 10.0 miles
Clouds Overcast 6500 ft
Windchill 47 °F
Dew Point 28 °F
Humidity 47%
Rainfall 0.17 in
Snow Depth Not available.
UV 2 out of 12
Pollen 2.10 out of 12
Air Quality Not available.
Flu Activity Not available.
METAR KCNY 272053Z AUTO 00000KT 10SM OVC065 07/M05 A2974 RMK AO2 SLP070 T00671050 58027

More Conditions Fewer Conditions

Pressure 29.74 in
Visibility 10.0 miles
Clouds Overcast 6500 ft
Windchill 47 °F
Dew Point 28 °F
Humidity 47%
Rainfall 0.17 in
Snow Depth Not available.
UV 2 out of 12
Pollen 2.10 out of 12
Air Quality Not available.
Flu Activity Not available.
METAR KCNY 272053Z AUTO 00000KT 10SM OVC065 07/M05 A2974 RMK AO2 SLP070 T00671050 58027

More Conditions Fewer Conditions

10-Day Weather Forecast

Almanac

Astronomy

Feb. 27, 2015 Rise Set
Actual Time
Civil Twilight
Nautical Twilight
Astronomical Twilight
Moon
Length of Visible Light
Length of Day
Tomorrow will be .
, % of the Moon is Illuminated

Today's Extremes

State Highs State Lows

Community

WunderPhotos

Upload Photos

1,800,844 photos uploaded!

WunderBlogs® & News

Nearby

Air Quality

  Air Quality AQ Index Pollutant
Not available.

Snow Depth

Station Depth Elevation

Earthquake Activity

City Distance Mag. Time & Date
Minimum magnitude displayed is 2.5.

Coastal Water Temperatures

Place Temperature

Nearby Weather Stations